createdAt,value
2018-10-09T00:00:36.053Z,95491.08
2018-10-09T00:03:41.243Z,95486.55
2018-10-09T00:06:45.687Z,95489.20
2018-10-09T00:09:51.200Z,95492.10
2018-10-09T00:12:55.699Z,95491.78
2018-10-09T00:16:06.948Z,95492.12
2018-10-09T00:19:11.269Z,95497.35
2018-10-09T00:22:16.016Z,95493.92
2018-10-09T00:25:20.548Z,95496.36
2018-10-09T00:28:24.852Z,95494.87
2018-10-09T00:31:29.224Z,95500.88
2018-10-09T00:34:33.696Z,95494.54
2018-10-09T00:37:38.127Z,95495.94
2018-10-09T00:40:42.443Z,95493.46
2018-10-09T00:43:46.727Z,95492.12
2018-10-09T00:46:51.728Z,95490.78
2018-10-09T00:49:56.243Z,95495.01
2018-10-09T00:53:01.336Z,95491.89
2018-10-09T00:56:05.673Z,95493.38
2018-10-09T00:59:09.963Z,95495.95
2018-10-09T01:02:14.266Z,95488.95
2018-10-09T01:05:18.612Z,95494.80
2018-10-09T01:08:23.008Z,95495.64
2018-10-09T01:11:28.596Z,95495.28
2018-10-09T01:14:32.909Z,95496.11
2018-10-09T01:17:37.288Z,95495.58
2018-10-09T01:20:41.852Z,95497.67
2018-10-09T01:23:46.139Z,95500.09
2018-10-09T01:26:51.732Z,95503.06
2018-10-09T01:29:56.107Z,95504.08
2018-10-09T01:33:00.844Z,95505.31
2018-10-09T01:36:05.276Z,95507.53
2018-10-09T01:39:10.555Z,95496.98
2018-10-09T01:42:14.876Z,95498.55
2018-10-09T01:45:19.387Z,95492.02
2018-10-09T01:48:23.730Z,95494.70
2018-10-09T01:51:28.067Z,95499.81
2018-10-09T01:54:32.483Z,95498.53
2018-10-09T01:57:36.860Z,95499.33
2018-10-09T02:00:41.276Z,95498.17
2018-10-09T02:03:45.761Z,95496.59
2018-10-09T02:06:50.312Z,95500.25
2018-10-09T02:09:54.635Z,95496.91
2018-10-09T02:12:58.971Z,95495.15
2018-10-09T02:16:03.684Z,95501.03
2018-10-09T02:19:08.052Z,95506.60
2018-10-09T02:22:12.400Z,95513.44
2018-10-09T02:25:16.749Z,95513.25
2018-10-09T02:28:21.097Z,95511.77
2018-10-09T02:31:25.401Z,95511.77
2018-10-09T02:34:29.769Z,95507.80
2018-10-09T02:37:34.096Z,95501.69
2018-10-09T02:40:38.416Z,95503.98
2018-10-09T02:43:42.778Z,95504.02
2018-10-09T02:46:47.112Z,95503.56
2018-10-09T02:49:51.450Z,95507.53
2018-10-09T02:52:55.817Z,95510.25
2018-10-09T02:56:00.223Z,95506.26
2018-10-09T02:59:04.625Z,95502.05
2018-10-09T03:02:08.959Z,95487.54
2018-10-09T03:05:13.397Z,95492.74
2018-10-09T03:08:17.853Z,95494.77
2018-10-09T03:11:22.259Z,95496.00
2018-10-09T03:14:26.620Z,95490.55
2018-10-09T03:17:31.075Z,95481.93
2018-10-09T03:20:35.395Z,95484.59
2018-10-09T03:23:46.688Z,95486.39
2018-10-09T03:26:52.297Z,95486.48
2018-10-09T03:29:56.709Z,95489.51
2018-10-09T03:33:01.054Z,95480.28
2018-10-09T03:36:05.663Z,95477.72
2018-10-09T03:39:10.395Z,95479.18
2018-10-09T03:42:15.035Z,95478.63
2018-10-09T03:45:19.740Z,95477.20
2018-10-09T03:48:24.052Z,95484.52
2018-10-09T03:51:35.398Z,95480.98
2018-10-09T03:54:40.423Z,95486.00
2018-10-09T03:57:44.945Z,95490.48
2018-10-09T04:00:49.272Z,95491.36
2018-10-09T04:03:53.588Z,95485.15
2018-10-09T04:06:58.307Z,95485.93
2018-10-09T04:10:02.831Z,95485.80
2018-10-09T04:13:07.924Z,95486.26
2018-10-09T04:16:14.181Z,95496.47
2018-10-09T04:19:18.595Z,95502.82
2018-10-09T04:22:24.353Z,95500.38
2018-10-09T04:25:28.692Z,95502.27
2018-10-09T04:28:33.307Z,95502.17
2018-10-09T04:31:37.374Z,95507.82
2018-10-09T04:34:41.808Z,95508.14
2018-10-09T04:37:46.157Z,95515.83
2018-10-09T04:40:50.556Z,95513.61
2018-10-09T04:43:55.229Z,95513.14
2018-10-09T04:46:59.517Z,95512.42
2018-10-09T04:50:04.618Z,95512.32
2018-10-09T04:53:09.075Z,95510.87
2018-10-09T04:56:13.371Z,95502.48
2018-10-09T04:59:17.698Z,95500.23
2018-10-09T05:02:22.240Z,95506.81
2018-10-09T05:05:26.837Z,95514.49
2018-10-09T05:08:35.732Z,95507.82
2018-10-09T05:11:40.061Z,95515.50
2018-10-09T05:14:44.440Z,95512.51
2018-10-09T05:17:49.018Z,95515.73
2018-10-09T05:20:53.249Z,95516.28
2018-10-09T05:23:57.600Z,95524.74
2018-10-09T05:27:02.054Z,95527.60
2018-10-09T05:30:06.699Z,95532.28
2018-10-09T05:33:11.040Z,95528.61
2018-10-09T05:36:15.655Z,95530.50
2018-10-09T05:39:20.829Z,95528.94
2018-10-09T05:42:24.964Z,95525.62
2018-10-09T05:45:29.281Z,95523.28
2018-10-09T05:48:33.634Z,95521.20
2018-10-09T05:51:38.149Z,95513.75
2018-10-09T05:54:43.056Z,95514.41
2018-10-09T05:57:47.392Z,95513.75
2018-10-09T06:00:51.975Z,95513.52
2018-10-09T06:03:56.510Z,95515.08
2018-10-09T06:07:00.868Z,95509.77
2018-10-09T06:10:05.408Z,95521.31
2018-10-09T06:13:09.829Z,95517.44
2018-10-09T06:16:14.201Z,95522.20
2018-10-09T06:19:18.737Z,95523.10
2018-10-09T06:22:23.718Z,95525.30
2018-10-09T06:25:28.044Z,95520.41
2018-10-09T06:28:32.757Z,95530.19
2018-10-09T06:31:37.076Z,95530.29
2018-10-09T06:34:41.539Z,95533.42
2018-10-09T06:37:45.928Z,95530.95
2018-10-09T06:40:50.257Z,95533.83
2018-10-09T06:43:54.580Z,95536.13
2018-10-09T06:46:58.929Z,95540.97
2018-10-09T06:50:04.004Z,95540.27
2018-10-09T06:53:08.396Z,95544.89
2018-10-09T06:56:13.093Z,95551.61
2018-10-09T06:59:17.526Z,95551.46
2018-10-09T07:02:21.956Z,95550.13
2018-10-09T07:05:26.303Z,95553.23
2018-10-09T07:08:30.968Z,95547.63
2018-10-09T07:11:35.326Z,95547.13
2018-10-09T07:14:39.781Z,95546.63
2018-10-09T07:17:44.133Z,95552.38
2018-10-09T07:20:48.502Z,95558.13
2018-10-09T07:23:53.060Z,95563.97
2018-10-09T07:26:57.582Z,95564.02
2018-10-09T07:30:02.021Z,95570.66
2018-10-09T07:33:06.772Z,95579.43
2018-10-09T07:36:11.144Z,95582.89
2018-10-09T07:39:15.683Z,95586.24
2018-10-09T07:42:20.192Z,95588.48
2018-10-09T07:45:24.584Z,95590.14
2018-10-09T07:48:28.948Z,95588.92
2018-10-09T07:51:33.321Z,95595.71
2018-10-09T07:54:38.198Z,95592.88
2018-10-09T07:57:43.104Z,95599.29
2018-10-09T08:00:47.716Z,95593.59
2018-10-09T08:03:52.032Z,95595.67
2018-10-09T08:06:56.492Z,95597.56
2018-10-09T08:10:00.895Z,95594.98
2018-10-09T08:13:05.205Z,95594.84
2018-10-09T08:16:10.332Z,95594.78
2018-10-09T08:19:14.633Z,95597.41
2018-10-09T08:22:19.209Z,95597.45
2018-10-09T08:25:23.580Z,95600.97
2018-10-09T08:28:27.947Z,95602.91
2018-10-09T08:31:32.514Z,95601.30
2018-10-09T08:34:37.311Z,95594.69
2018-10-09T08:37:41.857Z,95606.36
2018-10-09T08:40:47.067Z,95600.88
2018-10-09T08:43:51.580Z,95597.63
2018-10-09T08:46:56.036Z,95599.09
2018-10-09T08:50:00.484Z,95598.05
2018-10-09T08:53:04.977Z,95598.59
2018-10-09T08:56:09.296Z,95599.64
2018-10-09T08:59:13.711Z,95599.09
2018-10-09T09:02:18.116Z,95598.95
2018-10-09T09:05:22.655Z,95597.14
2018-10-09T09:08:26.980Z,95602.66
2018-10-09T09:11:31.297Z,95600.92
2018-10-09T09:14:35.626Z,95595.28
2018-10-09T09:17:40.176Z,95601.42
2018-10-09T09:20:44.542Z,95604.50
2018-10-09T09:23:48.969Z,95605.66
2018-10-09T09:26:53.495Z,95612.73
2018-10-09T09:29:59.448Z,95615.48
2018-10-09T09:33:03.923Z,95614.50
2018-10-09T09:36:08.448Z,95618.02
2018-10-09T09:39:12.843Z,95614.91
2018-10-09T09:42:17.235Z,95619.42
2018-10-09T09:45:21.607Z,95613.03
2018-10-09T09:48:26.042Z,95612.39
2018-10-09T09:51:30.417Z,95609.79
2018-10-09T09:54:34.857Z,95612.08
2018-10-09T09:57:39.176Z,95609.70
2018-10-09T10:00:48.906Z,95611.07
2018-10-09T10:03:53.233Z,95611.78
2018-10-09T10:06:57.573Z,95613.14
2018-10-09T10:10:01.670Z,95613.36
2018-10-09T10:13:06.596Z,95608.08
2018-10-09T10:16:11.539Z,95611.80
2018-10-09T10:19:15.944Z,95606.98
2018-10-09T10:22:21.043Z,95610.55
2018-10-09T10:25:25.373Z,95609.41
2018-10-09T10:28:29.759Z,95611.55
2018-10-09T10:31:34.090Z,95609.47
2018-10-09T10:34:38.610Z,95608.55
2018-10-09T10:37:42.931Z,95606.32
2018-10-09T10:40:48.515Z,95607.34
2018-10-09T10:43:52.933Z,95607.35
2018-10-09T10:46:57.368Z,95604.84
2018-10-09T10:50:01.881Z,95602.03
2018-10-09T10:53:06.203Z,95603.03
2018-10-09T10:56:10.523Z,95602.92
2018-10-09T10:59:14.846Z,95601.92
2018-10-09T11:02:19.201Z,95590.05
2018-10-09T11:05:23.499Z,95594.69
2018-10-09T11:08:28.729Z,95592.48
2018-10-09T11:11:33.059Z,95593.20
2018-10-09T11:14:37.655Z,95589.52
2018-10-09T11:17:41.913Z,95591.31
2018-10-09T11:20:47.957Z,95589.31
2018-10-09T11:23:52.441Z,95586.78
2018-10-09T11:26:56.783Z,95590.13
2018-10-09T11:30:01.085Z,95587.77
2018-10-09T11:33:06.058Z,95587.41
2018-10-09T11:36:10.469Z,95584.31
2018-10-09T11:39:14.957Z,95577.49
2018-10-09T11:42:19.548Z,95574.44
2018-10-09T11:45:24.988Z,95577.02
2018-10-09T11:48:29.481Z,95574.79
2018-10-09T11:51:34.047Z,95566.59
2018-10-09T11:54:38.607Z,95565.28
2018-10-09T11:57:42.909Z,95570.78
2018-10-09T12:00:49.113Z,95566.81
2018-10-09T12:03:53.736Z,95565.70
2018-10-09T12:06:58.146Z,95563.58
2018-10-09T12:10:02.476Z,95557.93
2018-10-09T12:13:07.700Z,95552.81
2018-10-09T12:16:12.023Z,95552.45
2018-10-09T12:19:17.125Z,95549.45
2018-10-09T12:22:21.461Z,95542.63
2018-10-09T12:25:25.984Z,95541.39
2018-10-09T12:28:31.949Z,95541.43
2018-10-09T12:31:36.307Z,95542.98
2018-10-09T12:34:40.677Z,95547.07
2018-10-09T12:37:44.762Z,95546.38
2018-10-09T12:40:49.418Z,95534.27
2018-10-09T12:43:53.890Z,95535.31
2018-10-09T12:46:58.975Z,95522.16
2018-10-09T12:50:03.375Z,95524.07
2018-10-09T12:53:08.006Z,95525.97
2018-10-09T12:56:12.373Z,95531.26
2018-10-09T12:59:29.407Z,95529.75
2018-10-09T13:02:34.396Z,95532.25
2018-10-09T13:05:39.930Z,95528.23
2018-10-09T13:08:44.560Z,95523.64
2018-10-09T13:11:49.127Z,95516.66
2018-10-09T13:14:53.818Z,95519.98
2018-10-09T13:17:58.573Z,95523.39
2018-10-09T13:21:03.121Z,95525.88
2018-10-09T13:24:07.542Z,95522.22
2018-10-09T13:27:12.038Z,95514.92
2018-10-09T13:30:16.440Z,95510.17
2018-10-09T13:33:21.601Z,95510.34
2018-10-09T13:36:25.889Z,95509.98
2018-10-09T13:39:30.340Z,95515.14
2018-10-09T13:42:34.777Z,95512.19
2018-10-09T13:45:39.390Z,95505.19
2018-10-09T13:48:44.040Z,95509.66
2018-10-09T13:51:48.629Z,95516.59
2018-10-09T13:54:53.741Z,95515.59
2018-10-09T13:57:58.256Z,95512.83
2018-10-09T14:01:02.924Z,95513.63
2018-10-09T14:04:07.824Z,95506.58
2018-10-09T14:07:12.320Z,95501.23
2018-10-09T14:10:16.924Z,95502.70
2018-10-09T14:13:21.430Z,95505.40
2018-10-09T14:16:25.923Z,95503.20
2018-10-09T14:19:30.397Z,95505.36
2018-10-09T14:22:36.005Z,95506.39
2018-10-09T14:25:41.317Z,95503.25
2018-10-09T14:28:45.996Z,95492.49
2018-10-09T14:31:50.574Z,95497.83
2018-10-09T14:34:55.083Z,95489.44
2018-10-09T14:37:59.583Z,95484.26
2018-10-09T14:41:05.418Z,95489.24
2018-10-09T14:44:10.902Z,95486.29
2018-10-09T14:47:15.388Z,95479.98
2018-10-09T14:50:19.863Z,95480.08
2018-10-09T14:53:25.311Z,95486.76
2018-10-09T14:56:29.771Z,95490.09
2018-10-09T14:59:34.872Z,95481.87
2018-10-09T15:02:39.973Z,95491.20
2018-10-09T15:05:44.368Z,95483.69
2018-10-09T15:08:48.896Z,95483.66
2018-10-09T15:11:53.941Z,95480.13
2018-10-09T15:14:58.300Z,95480.87
2018-10-09T15:18:02.660Z,95478.14
2018-10-09T15:21:07.785Z,95480.79
2018-10-09T15:24:12.151Z,95486.86
2018-10-09T15:27:16.497Z,95482.75
2018-10-09T15:30:20.809Z,95487.30
2018-10-09T15:33:25.160Z,95491.38
2018-10-09T15:36:29.465Z,95493.42
2018-10-09T15:39:33.844Z,95491.30
2018-10-09T15:42:38.378Z,95490.81
2018-10-09T15:45:42.684Z,95495.44
2018-10-09T15:48:46.994Z,95497.78
2018-10-09T15:55:06.448Z,95493.52
2018-10-09T15:58:11.067Z,95492.94
2018-10-09T16:01:15.505Z,95491.31
2018-10-09T16:04:20.173Z,95497.27
2018-10-09T16:07:25.154Z,95498.72
2018-10-09T16:10:29.711Z,95501.82
2018-10-09T16:13:34.049Z,95499.20
2018-10-09T16:16:38.378Z,95498.22
2018-10-09T16:19:42.749Z,95502.23
2018-10-09T16:22:47.174Z,95496.48
2018-10-09T16:25:54.708Z,95495.83
2018-10-09T16:28:58.986Z,95493.85
2018-10-09T16:32:05.771Z,95490.97
2018-10-09T16:35:12.506Z,95482.97
2018-10-09T16:38:20.132Z,95480.18
2018-10-09T16:41:31.418Z,95481.84
2018-10-09T16:44:36.818Z,95481.48
2018-10-09T16:47:41.733Z,95479.88
2018-10-09T16:50:46.161Z,95483.27
2018-10-09T16:53:50.803Z,95484.27
2018-10-09T16:56:55.241Z,95483.55
2018-10-09T16:59:59.769Z,95478.98
2018-10-09T17:03:04.197Z,95481.16
2018-10-09T17:06:11.529Z,95482.10
2018-10-09T17:09:18.422Z,95485.52
2018-10-09T17:12:24.160Z,95481.70
2018-10-09T17:15:29.204Z,95480.12
2018-10-09T17:18:34.997Z,95478.27
2018-10-09T17:21:41.231Z,95479.13
2018-10-09T17:24:47.665Z,95479.73
2018-10-09T17:27:52.759Z,95474.96
2018-10-09T17:31:00.431Z,95478.36
2018-10-09T17:34:07.626Z,95478.97
2018-10-09T17:37:14.181Z,95477.60
2018-10-09T17:44:02.420Z,95481.27
2018-10-09T17:47:11.125Z,95478.84
2018-10-09T17:50:18.774Z,95483.97
2018-10-09T17:53:24.258Z,95478.75
2018-10-09T17:56:29.145Z,95478.75
2018-10-09T17:59:33.942Z,95490.52
2018-10-09T18:02:42.685Z,95500.11
2018-10-09T18:05:49.022Z,95498.54
2018-10-09T18:08:54.253Z,95500.88
2018-10-09T18:11:59.349Z,95495.02
2018-10-09T18:15:05.819Z,95499.52
2018-10-09T18:18:12.151Z,95496.97
2018-10-09T18:21:17.940Z,95493.64
2018-10-09T18:24:22.486Z,95502.63
2018-10-09T18:27:27.288Z,95498.38
2018-10-09T18:30:32.324Z,95497.63
2018-10-09T18:33:37.534Z,95497.22
2018-10-09T18:36:43.421Z,95497.48
2018-10-09T18:40:02.779Z,95491.91
2018-10-09T18:43:07.926Z,95500.30
2018-10-09T18:46:12.804Z,95494.48
2018-10-09T18:49:17.624Z,95488.94
2018-10-09T18:52:22.329Z,95486.98
2018-10-09T18:55:28.714Z,95490.84
2018-10-09T18:58:39.593Z,95496.67
2018-10-09T19:05:00.796Z,95489.39
2018-10-09T19:08:05.548Z,95492.60
2018-10-09T19:11:10.088Z,95494.87
2018-10-09T19:14:14.630Z,95497.14
2018-10-09T19:17:19.684Z,95503.33
2018-10-09T19:20:24.185Z,95500.84
2018-10-09T19:23:29.783Z,95504.94
2018-10-09T19:26:34.421Z,95511.92
2018-10-09T19:29:39.086Z,95512.83
2018-10-09T19:32:43.813Z,95513.94
2018-10-09T19:35:48.132Z,95517.48
2018-10-09T19:38:52.848Z,95524.47
2018-10-09T19:41:57.355Z,95521.16
2018-10-09T19:45:01.891Z,95519.95
2018-10-09T19:48:06.189Z,95523.83
2018-10-09T19:51:11.072Z,95520.19
2018-10-09T19:54:15.259Z,95524.30
2018-10-09T19:57:19.612Z,95530.30
2018-10-09T20:00:24.376Z,95525.52
2018-10-09T20:03:28.854Z,95522.50
2018-10-09T20:06:34.025Z,95525.63
2018-10-09T20:09:38.374Z,95529.30
2018-10-09T20:12:42.828Z,95530.86
2018-10-09T20:15:47.615Z,95528.98
2018-10-09T20:18:52.047Z,95541.08
2018-10-09T20:21:56.468Z,95534.31
2018-10-09T20:25:01.469Z,95532.06
2018-10-09T20:28:06.027Z,95536.85
2018-10-09T20:31:10.404Z,95539.88
2018-10-09T20:34:15.009Z,95542.87
2018-10-09T20:37:19.688Z,95543.33
2018-10-09T20:40:24.360Z,95543.20
2018-10-09T20:43:28.693Z,95546.32
2018-10-09T20:46:33.006Z,95547.00
2018-10-09T20:49:37.305Z,95549.34
2018-10-09T20:52:41.740Z,95548.34
2018-10-09T20:55:46.118Z,95547.75
2018-10-09T20:58:50.660Z,95539.84
2018-10-09T21:01:54.995Z,95536.47
2018-10-09T21:04:59.717Z,95537.52
2018-10-09T21:08:04.194Z,95535.49
2018-10-09T21:11:08.995Z,95535.19
2018-10-09T21:14:13.693Z,95527.34
2018-10-09T21:17:18.235Z,95526.07
2018-10-09T21:20:22.688Z,95516.52
2018-10-09T21:23:27.168Z,95522.42
2018-10-09T21:26:31.772Z,95518.13
2018-10-09T21:29:36.298Z,95519.42
2018-10-09T21:32:40.885Z,95516.88
2018-10-09T21:35:45.227Z,95520.52
2018-10-09T21:38:49.564Z,95522.86
2018-10-09T21:41:54.708Z,95511.98
2018-10-09T21:44:59.083Z,95514.33
2018-10-09T21:48:04.557Z,95508.11
2018-10-09T21:51:09.311Z,95510.66
2018-10-09T21:54:13.846Z,95507.61
2018-10-09T21:57:19.070Z,95514.38
2018-10-09T22:00:23.447Z,95519.58
2018-10-09T22:03:28.056Z,95521.03
2018-10-09T22:06:32.525Z,95521.73
2018-10-09T22:09:37.116Z,95509.77
2018-10-09T22:12:41.451Z,95514.22
2018-10-09T22:15:45.851Z,95507.33
2018-10-09T22:18:50.199Z,95515.77
2018-10-09T22:21:55.318Z,95514.30
2018-10-09T22:25:02.618Z,95518.78
2018-10-09T22:28:06.969Z,95517.27
2018-10-09T22:31:11.951Z,95512.58
2018-10-09T22:34:16.440Z,95509.20
2018-10-09T22:37:21.353Z,95506.74
2018-10-09T22:40:25.773Z,95510.13
2018-10-09T22:43:30.223Z,95507.48
2018-10-09T22:46:34.568Z,95505.60
2018-10-09T22:49:38.873Z,95509.69
2018-10-09T22:52:43.401Z,95504.72
2018-10-09T22:55:47.739Z,95503.38
2018-10-09T22:58:52.510Z,95504.69
2018-10-09T23:01:57.114Z,95505.55
2018-10-09T23:05:02.225Z,95510.22
2018-10-09T23:08:06.680Z,95502.79
2018-10-09T23:11:11.008Z,95501.14
2018-10-09T23:14:16.812Z,95493.93
2018-10-09T23:17:21.352Z,95491.39
2018-10-09T23:20:25.640Z,95495.62
2018-10-09T23:23:30.482Z,95484.43
2018-10-09T23:26:34.947Z,95476.13
2018-10-09T23:29:39.350Z,95475.73
2018-10-09T23:32:43.766Z,95475.27
2018-10-09T23:35:48.068Z,95473.08
2018-10-09T23:38:53.100Z,95468.75
2018-10-09T23:41:57.416Z,95464.34
2018-10-09T23:45:01.847Z,95472.53
2018-10-09T23:48:09.264Z,95466.33
2018-10-09T23:51:13.611Z,95461.61
2018-10-09T23:54:17.964Z,95462.49
2018-10-09T23:57:22.484Z,95459.17
